createdAt,value
2023-03-18T00:00:19.244Z,11.75
2023-03-18T00:02:48.037Z,13.75
2023-03-18T00:05:15.556Z,15.63
2023-03-18T00:07:42.361Z,13.13
2023-03-18T00:10:12.066Z,11.27
2023-03-18T00:12:41.259Z,26.42
2023-03-18T00:15:11.644Z,21.25
2023-03-18T00:17:40.336Z,22.27
2023-03-18T00:20:09.569Z,27.33
2023-03-18T00:22:37.995Z,13.50
2023-03-18T00:25:07.430Z,15.48
2023-03-18T00:27:36.042Z,16.58
2023-03-18T00:30:05.234Z,19.52
2023-03-18T00:32:33.359Z,16.58
2023-03-18T00:35:01.390Z,20.80
2023-03-18T00:37:31.698Z,14.15
2023-03-18T00:40:06.667Z,17.90
2023-03-18T00:42:47.710Z,17.77
2023-03-18T00:45:17.281Z,12.85
2023-03-18T00:47:44.540Z,15.93
2023-03-18T00:50:12.616Z,17.17
2023-03-18T00:52:39.739Z,14.82
2023-03-18T00:55:07.577Z,16.70
2023-03-18T00:57:34.454Z,17.33
2023-03-18T01:00:01.384Z,16.40
2023-03-18T01:02:29.868Z,23.08
2023-03-18T01:04:58.171Z,21.00
2023-03-18T01:07:25.286Z,27.98
2023-03-18T01:09:52.153Z,24.75
2023-03-18T01:12:19.259Z,24.80
2023-03-18T01:14:46.018Z,22.35
2023-03-18T01:17:13.037Z,17.60
2023-03-18T01:19:39.904Z,21.33
2023-03-18T01:22:07.753Z,20.10
2023-03-18T01:24:34.613Z,22.08
2023-03-18T01:27:01.509Z,15.32
2023-03-18T01:29:28.695Z,21.48
2023-03-18T01:31:56.019Z,23.85
2023-03-18T01:34:23.942Z,16.05
2023-03-18T01:36:50.880Z,18.63
2023-03-18T01:39:18.100Z,17.23
2023-03-18T01:41:46.011Z,20.33
2023-03-18T01:44:19.273Z,19.30
2023-03-18T01:46:50.385Z,19.80
2023-03-18T01:49:26.241Z,17.48
2023-03-18T01:51:59.310Z,19.55
2023-03-18T01:54:28.947Z,18.88
2023-03-18T01:56:57.505Z,18.63
2023-03-18T01:59:27.107Z,15.85
2023-03-18T02:02:02.849Z,17.67
2023-03-18T02:04:36.634Z,14.98
2023-03-18T02:07:04.495Z,14.18
2023-03-18T02:09:32.046Z,21.52
2023-03-18T02:12:01.634Z,17.33
2023-03-18T02:14:28.468Z,20.30
2023-03-18T02:17:17.005Z,15.60
2023-03-18T02:19:49.836Z,14.93
2023-03-18T02:22:41.565Z,15.18
2023-03-18T02:25:29.844Z,16.30
2023-03-18T02:28:01.795Z,16.02
2023-03-18T02:30:34.018Z,16.30
2023-03-18T02:33:02.266Z,18.73
2023-03-18T02:35:31.576Z,14.80
2023-03-18T02:37:58.993Z,14.50
2023-03-18T02:40:33.516Z,17.42
2023-03-18T02:43:20.757Z,19.13
2023-03-18T02:46:12.023Z,17.60
2023-03-18T02:48:42.423Z,10.38
2023-03-18T02:51:10.752Z,15.73
2023-03-18T02:53:37.962Z,16.92
2023-03-18T02:56:05.553Z,18.40
2023-03-18T02:58:32.751Z,23.50
2023-03-18T03:00:59.889Z,20.25
2023-03-18T03:03:27.849Z,17.33
2023-03-18T03:05:55.288Z,22.73
2023-03-18T03:08:22.470Z,19.17
2023-03-18T03:10:51.273Z,28.25
2023-03-18T03:13:19.365Z,23.67
2023-03-18T03:15:46.194Z,21.42
2023-03-18T03:18:13.132Z,22.77
2023-03-18T03:20:40.348Z,17.08
2023-03-18T03:23:08.851Z,18.10
2023-03-18T03:25:36.068Z,18.67
2023-03-18T03:28:04.260Z,20.23
2023-03-18T03:30:31.276Z,18.42
2023-03-18T03:32:58.336Z,19.55
2023-03-18T03:35:25.332Z,15.55
2023-03-18T03:37:52.730Z,15.63
2023-03-18T03:40:21.761Z,21.17
2023-03-18T03:42:49.210Z,18.65
2023-03-18T03:45:17.624Z,17.05
2023-03-18T03:47:46.672Z,18.95
2023-03-18T03:50:14.977Z,18.25
2023-03-18T03:52:41.769Z,17.48
2023-03-18T03:55:12.550Z,17.27
2023-03-18T03:57:39.451Z,15.07
2023-03-18T04:00:13.584Z,23.55
2023-03-18T04:02:42.146Z,16.98
2023-03-18T04:05:10.465Z,14.00
2023-03-18T04:07:37.821Z,13.82
2023-03-18T04:10:05.338Z,15.20
2023-03-18T04:12:32.200Z,16.55
2023-03-18T04:14:59.341Z,18.55
2023-03-18T04:17:26.324Z,20.48
2023-03-18T04:19:53.735Z,20.05
2023-03-18T04:22:20.562Z,22.67
2023-03-18T04:24:47.542Z,25.42
2023-03-18T04:27:14.371Z,25.95
2023-03-18T04:29:41.218Z,28.95
2023-03-18T04:32:08.216Z,28.45
2023-03-18T04:34:34.980Z,26.48
2023-03-18T04:37:02.460Z,26.83
2023-03-18T04:39:29.342Z,32.17
2023-03-18T04:41:57.243Z,36.80
2023-03-18T04:44:25.785Z,33.33
2023-03-18T04:46:54.134Z,30.60
2023-03-18T04:49:21.689Z,37.20
2023-03-18T04:51:48.529Z,36.55
2023-03-18T04:54:15.268Z,26.38
2023-03-18T04:56:42.363Z,34.10
2023-03-18T04:59:09.367Z,33.85
2023-03-18T05:01:36.524Z,44.13
2023-03-18T05:04:03.312Z,42.58
2023-03-18T05:06:31.930Z,40.65
2023-03-18T05:08:59.126Z,34.38
2023-03-18T05:11:26.997Z,33.22
2023-03-18T07:04:17.912Z,13.63
2023-03-18T07:06:44.971Z,10.27
2023-03-18T07:09:12.785Z,14.45
2023-03-18T07:11:39.640Z,9.65
2023-03-18T07:14:06.458Z,13.23
2023-03-18T16:22:49.097Z,11.73
2023-03-18T16:25:16.561Z,12.10
2023-03-18T16:27:47.436Z,9.05
2023-03-18T16:30:26.509Z,7.75
2023-03-18T16:32:54.445Z,7.20
2023-03-18T16:35:32.942Z,7.78
2023-03-18T16:38:01.459Z,9.40
2023-03-18T16:40:30.908Z,10.15
2023-03-18T16:42:58.094Z,14.27
2023-03-18T16:45:30.405Z,15.70
2023-03-18T16:48:01.438Z,13.68
2023-03-18T16:50:36.647Z,22.20
2023-03-18T16:53:05.194Z,19.45
2023-03-18T16:55:32.853Z,33.58
2023-03-18T16:58:00.485Z,37.60
2023-03-18T17:00:32.287Z,26.80
2023-03-18T17:03:00.256Z,17.42
2023-03-18T17:05:28.675Z,14.73
2023-03-18T17:07:56.685Z,11.32
2023-03-18T17:10:27.305Z,10.20
2023-03-18T17:13:06.096Z,12.82
2023-03-18T17:15:37.063Z,11.35
2023-03-18T17:18:13.493Z,15.45
2023-03-18T17:20:41.816Z,10.90
2023-03-18T17:23:15.448Z,12.02
2023-03-18T17:25:47.960Z,11.45
2023-03-18T17:28:21.615Z,8.65
2023-03-18T17:30:48.693Z,14.45
2023-03-18T17:33:24.715Z,14.95
2023-03-18T17:35:54.318Z,16.75
2023-03-18T17:38:21.873Z,13.15
2023-03-18T17:40:51.803Z,10.27
2023-03-18T17:43:25.178Z,9.25
2023-03-18T17:45:52.404Z,10.90
2023-03-18T17:48:25.289Z,13.05
2023-03-18T17:51:01.867Z,11.90
2023-03-18T17:53:34.690Z,12.20
2023-03-18T17:56:03.459Z,13.90
2023-03-18T17:58:33.178Z,36.17
2023-03-18T18:01:08.377Z,38.83
2023-03-18T18:03:37.873Z,40.08
2023-03-18T18:06:07.355Z,31.35
2023-03-18T18:08:34.977Z,38.30
2023-03-18T18:11:20.742Z,52.65
2023-03-18T18:13:49.454Z,48.45
2023-03-18T18:16:17.384Z,39.35
2023-03-18T18:18:47.687Z,36.80
2023-03-18T18:23:46.091Z,27.52
2023-03-18T18:26:19.905Z,30.20
2023-03-18T18:28:49.117Z,28.85
2023-03-18T18:31:19.605Z,29.00
2023-03-18T18:33:50.280Z,21.85
2023-03-18T18:36:19.199Z,21.50
2023-03-18T18:38:48.438Z,18.52
2023-03-18T18:41:17.821Z,16.92
2023-03-18T18:43:45.426Z,26.58
2023-03-18T18:46:17.675Z,28.98
2023-03-18T18:48:49.073Z,18.98
2023-03-18T18:51:22.318Z,20.25
2023-03-18T18:53:52.965Z,14.23
2023-03-18T18:56:37.310Z,16.00
2023-03-18T18:59:27.159Z,15.80
2023-03-18T19:01:56.045Z,16.88
2023-03-18T19:04:24.507Z,16.35
2023-03-18T19:06:54.430Z,21.38
2023-03-18T19:09:25.111Z,30.77
2023-03-18T19:11:54.099Z,25.15
2023-03-18T19:14:25.126Z,34.05
2023-03-18T19:16:54.739Z,31.23
2023-03-18T19:19:27.098Z,42.53
2023-03-18T19:21:54.835Z,54.38
2023-03-18T19:24:27.480Z,52.05
2023-03-18T19:26:57.144Z,50.13
2023-03-18T19:29:25.571Z,46.35
2023-03-18T19:31:55.051Z,41.78
2023-03-18T19:34:24.030Z,36.15
2023-03-18T19:36:57.601Z,27.45
2023-03-18T19:39:28.515Z,27.63
2023-03-18T19:41:56.322Z,20.23
2023-03-18T19:44:27.838Z,21.90
2023-03-18T19:47:02.040Z,16.98
2023-03-18T19:49:36.368Z,15.38
2023-03-18T21:27:22.984Z,25.58
2023-03-18T21:29:51.606Z,24.77
2023-03-18T21:32:27.881Z,20.40
2023-03-18T21:34:56.025Z,25.13
2023-03-18T21:37:25.691Z,25.25
2023-03-18T21:39:52.956Z,25.92
2023-03-18T21:42:29.823Z,30.33
2023-03-18T21:45:00.111Z,27.00
2023-03-18T21:47:27.572Z,24.90
2023-03-18T21:49:54.594Z,23.48
2023-03-18T21:52:31.620Z,27.45
2023-03-18T21:54:59.539Z,26.17
2023-03-18T21:57:27.630Z,28.70
2023-03-18T21:59:54.831Z,26.58
2023-03-18T22:02:28.149Z,26.08
2023-03-18T22:04:58.030Z,24.88
2023-03-18T22:07:29.751Z,28.63
2023-03-18T22:09:57.333Z,26.50
2023-03-18T22:12:29.909Z,25.00
2023-03-18T22:14:57.930Z,28.17
2023-03-18T22:17:31.804Z,24.30
2023-03-18T22:20:00.691Z,21.73
2023-03-18T22:22:36.924Z,26.17
2023-03-18T22:25:04.188Z,20.55
2023-03-18T22:27:31.940Z,23.35
2023-03-18T22:30:00.613Z,22.35
2023-03-18T22:32:33.352Z,23.48
2023-03-18T22:35:00.441Z,22.85
2023-03-18T22:37:27.570Z,25.40
2023-03-18T22:39:54.411Z,24.05
2023-03-18T22:42:26.440Z,26.15
2023-03-18T22:44:54.647Z,25.25
2023-03-18T22:47:26.383Z,23.70
2023-03-18T22:49:53.158Z,23.60
2023-03-18T22:52:24.022Z,27.08
2023-03-18T22:54:55.971Z,26.27
2023-03-18T22:57:27.232Z,21.90
2023-03-18T22:59:57.248Z,24.25
2023-03-18T23:02:26.635Z,25.90
2023-03-18T23:04:55.323Z,23.50
2023-03-18T23:07:29.824Z,23.75
2023-03-18T23:09:58.890Z,28.27
2023-03-18T23:12:27.317Z,29.50
2023-03-18T23:14:54.775Z,29.45
2023-03-18T23:17:24.145Z,31.65
2023-03-18T23:19:52.159Z,24.98
2023-03-18T23:22:31.322Z,28.52
2023-03-18T23:24:58.453Z,30.85
2023-03-18T23:27:26.358Z,32.10
2023-03-18T23:29:53.562Z,32.55
2023-03-18T23:32:21.958Z,27.63
2023-03-18T23:34:49.661Z,25.02
2023-03-18T23:37:16.617Z,25.92
2023-03-18T23:39:46.210Z,25.38
2023-03-18T23:42:15.046Z,25.70
2023-03-18T23:44:42.759Z,23.65
2023-03-18T23:47:11.378Z,23.48
2023-03-18T23:49:38.608Z,21.92
2023-03-18T23:52:09.143Z,22.70
2023-03-18T23:54:36.373Z,22.70
2023-03-18T23:57:04.415Z,18.25
2023-03-18T23:59:31.539Z,21.98
